Time;durP1;ratioP1;P1;durP2;ratioP2;P2;SDS_P1;SDS_P2;PMS_P1;PMS_P2;Temp;Humidity;BMP_temperature;BMP_pressure;BME280_temperature;BME280_humidity;BME280_pressure;Samples;Min_cycle;Max_cycle;Signal;HPM_P1;HPM_P2
2023/05/14 00:00:38;;;;;;;12.60;11.60;;;;;;;;;;5001146;28;20484;-75
2023/05/14 00:03:11;;;;;;;13.27;12.10;;;;;;;;;;5004641;28;20455;-76
2023/05/14 00:05:41;;;;;;;13.57;12.57;;;;;;;;;;5003268;28;20444;-77
2023/05/14 00:08:09;;;;;;;13.73;12.70;;;;;;;;;;5003567;28;20448;-76
2023/05/14 00:10:39;;;;;;;13.33;12.23;;;;;;;;;;5004750;28;20494;-76
2023/05/14 00:13:07;;;;;;;14.70;13.50;;;;;;;;;;5003193;28;20526;-76
2023/05/14 00:15:44;;;;;;;13.23;12.10;;;;;;;;;;5003518;28;20516;-76
2023/05/14 00:18:18;;;;;;;14.30;13.00;;;;;;;;;;5001493;28;20448;-78
2023/05/14 00:20:53;;;;;;;15.13;13.97;;;;;;;;;;5004708;28;20443;-76
2023/05/14 00:23:24;;;;;;;13.97;12.83;;;;;;;;;;5005006;28;20512;-78
2023/05/14 00:25:52;;;;;;;14.23;12.97;;;;;;;;;;5005601;28;20467;-76
2023/05/14 00:28:21;;;;;;;14.30;13.10;;;;;;;;;;5006296;28;20527;-78
2023/05/14 00:30:52;;;;;;;14.00;13.00;;;;;;;;;;5001384;28;20508;-76
2023/05/14 00:33:22;;;;;;;13.47;12.27;;;;;;;;;;4999724;28;20448;-77
2023/05/14 00:35:51;;;;;;;13.40;12.30;;;;;;;;;;4997678;28;20483;-77
2023/05/14 00:38:20;;;;;;;13.60;12.30;;;;;;;;;;4997303;28;20511;-78
2023/05/14 00:40:50;;;;;;;14.63;13.33;;;;;;;;;;4997111;28;20440;-78
2023/05/14 00:43:24;;;;;;;14.20;12.83;;;;;;;;;;4997755;28;20864;-77
2023/05/14 00:45:56;;;;;;;13.23;12.23;;;;;;;;;;4997782;28;20455;-77
2023/05/14 00:48:33;;;;;;;13.80;12.70;;;;;;;;;;4999020;28;20445;-77
2023/05/14 00:51:11;;;;;;;13.03;11.93;;;;;;;;;;4998481;28;20487;-76
2023/05/14 00:53:44;;;;;;;14.10;12.90;;;;;;;;;;4996841;28;20459;-78
2023/05/14 00:56:15;;;;;;;14.00;12.80;;;;;;;;;;4996397;28;20512;-77
2023/05/14 00:58:55;;;;;;;14.07;13.00;;;;;;;;;;4997187;28;20527;-76
2023/05/14 01:01:33;;;;;;;13.20;12.20;;;;;;;;;;4996617;28;20460;-76
2023/05/14 01:04:15;;;;;;;14.63;13.53;;;;;;;;;;4998918;28;20456;-77
2023/05/14 01:07:02;;;;;;;14.70;13.50;;;;;;;;;;5006570;28;20432;-75
2023/05/14 01:09:42;;;;;;;14.13;12.80;;;;;;;;;;5015432;28;20463;-76
2023/05/14 01:12:30;;;;;;;13.23;12.10;;;;;;;;;;5018225;28;20922;-76
2023/05/14 01:15:02;;;;;;;14.43;13.13;;;;;;;;;;5017848;28;20497;-76
2023/05/14 01:17:30;;;;;;;13.97;12.77;;;;;;;;;;5018532;28;20456;-76
2023/05/14 01:20:00;;;;;;;13.87;12.77;;;;;;;;;;5019168;28;20456;-76
2023/05/14 01:22:36;;;;;;;14.30;13.10;;;;;;;;;;5019119;28;20416;-75
2023/05/14 01:25:03;;;;;;;14.00;12.90;;;;;;;;;;5019520;28;20460;-76
2023/05/14 01:27:34;;;;;;;14.30;13.10;;;;;;;;;;5019279;28;20520;-75
2023/05/14 01:30:08;;;;;;;13.80;12.57;;;;;;;;;;5019598;28;20523;-75
2023/05/14 01:32:36;;;;;;;13.33;12.23;;;;;;;;;;5019967;28;20515;-75
2023/05/14 01:35:06;;;;;;;13.20;12.13;;;;;;;;;;5020091;28;20444;-75
2023/05/14 01:37:36;;;;;;;14.23;13.03;;;;;;;;;;5019414;28;20448;-76
2023/05/14 01:40:04;;;;;;;13.23;12.13;;;;;;;;;;5016459;28;20448;-76
2023/05/14 01:42:32;;;;;;;14.20;12.90;;;;;;;;;;5006751;28;20456;-75
2023/05/14 01:45:00;;;;;;;13.87;12.67;;;;;;;;;;5004144;28;20444;-77
2023/05/14 01:47:31;;;;;;;12.83;11.83;;;;;;;;;;5001277;28;20491;-77
2023/05/14 01:49:59;;;;;;;13.33;12.33;;;;;;;;;;5003247;28;20569;-77
2023/05/14 01:52:33;;;;;;;13.87;12.77;;;;;;;;;;5001817;28;20464;-76
2023/05/14 01:55:10;;;;;;;14.37;13.07;;;;;;;;;;5001374;28;20452;-75
2023/05/14 01:57:38;;;;;;;14.13;12.90;;;;;;;;;;5003542;28;20448;-76
2023/05/14 02:00:08;;;;;;;14.23;13.00;;;;;;;;;;4999882;28;20480;-75
2023/05/14 02:02:36;;;;;;;14.40;13.20;;;;;;;;;;4998960;28;20436;-76
2023/05/14 02:05:09;;;;;;;13.97;12.97;;;;;;;;;;4999238;28;21148;-76
2023/05/14 02:07:38;;;;;;;14.40;13.20;;;;;;;;;;5000147;28;20460;-77
2023/05/14 02:10:09;;;;;;;15.30;13.83;;;;;;;;;;4998208;28;20503;-76
2023/05/14 02:12:36;;;;;;;14.37;12.97;;;;;;;;;;4997487;28;20467;-77
2023/05/14 02:15:04;;;;;;;14.57;13.37;;;;;;;;;;4995333;28;21228;-77
2023/05/14 02:17:34;;;;;;;14.40;13.10;;;;;;;;;;4994418;28;20522;-77
2023/05/14 02:20:03;;;;;;;14.27;13.10;;;;;;;;;;4996039;28;20464;-77
2023/05/14 02:22:30;;;;;;;14.87;13.63;;;;;;;;;;4995255;28;20870;-77
2023/05/14 02:24:58;;;;;;;16.07;14.47;;;;;;;;;;4995190;28;20896;-77
2023/05/14 02:27:32;;;;;;;15.20;13.90;;;;;;;;;;4997602;28;20460;-77
2023/05/14 02:30:00;;;;;;;15.10;13.80;;;;;;;;;;4997480;28;20531;-78
2023/05/14 02:32:27;;;;;;;14.17;13.03;;;;;;;;;;4997936;28;20523;-76
2023/05/14 02:34:55;;;;;;;15.67;14.27;;;;;;;;;;5007610;28;20451;-77
2023/05/14 02:37:24;;;;;;;15.20;13.83;;;;;;;;;;5009871;28;20539;-76
2023/05/14 02:40:03;;;;;;;16.70;15.20;;;;;;;;;;5009547;28;20494;-75
2023/05/14 02:42:55;;;;;;;15.00;13.80;;;;;;;;;;5010075;28;20468;-76
2023/05/14 02:45:24;;;;;;;15.53;14.23;;;;;;;;;;5009412;28;20439;-77
2023/05/14 02:47:52;;;;;;;15.20;13.90;;;;;;;;;;5012097;28;20472;-76
2023/05/14 02:50:24;;;;;;;16.13;13.57;;;;;;;;;;5012284;28;20553;-76
2023/05/14 02:53:03;;;;;;;14.50;13.30;;;;;;;;;;5011913;28;20639;-77
2023/05/14 02:55:36;;;;;;;14.13;12.80;;;;;;;;;;5013414;28;20452;-75
2023/05/14 02:58:09;;;;;;;13.60;12.50;;;;;;;;;;5014083;28;20448;-77
2023/05/14 03:00:47;;;;;;;16.47;15.03;;;;;;;;;;5013218;28;20475;-77
2023/05/14 03:03:27;;;;;;;15.30;14.10;;;;;;;;;;5011843;28;20491;-75
2023/05/14 03:06:29;;;;;;;;;;;;;;;;;;;;;
2023/05/14 03:09:00;;;;;;;13.63;12.50;;;;;;;;;;5009526;28;20463;-76
2023/05/14 03:11:37;;;;;;;15.27;14.03;;;;;;;;;;5008430;28;20472;-75
2023/05/14 03:17:10;;;;;;;14.37;13.17;;;;;;;;;;5008285;28;20455;-76
2023/05/14 03:19:39;;;;;;;15.43;14.17;;;;;;;;;;5009137;28;21028;-76
2023/05/14 03:22:19;;;;;;;15.67;14.37;;;;;;;;;;5010276;28;20453;-76
2023/05/14 03:24:49;;;;;;;15.20;13.90;;;;;;;;;;5009268;28;20456;-75
2023/05/14 03:27:17;;;;;;;15.67;14.47;;;;;;;;;;5007513;28;20450;-74
2023/05/14 03:29:45;;;;;;;15.00;13.70;;;;;;;;;;5006131;28;20532;-76
2023/05/14 03:32:15;;;;;;;15.80;14.50;;;;;;;;;;5006690;28;20448;-75
2023/05/14 03:34:57;;;;;;;16.57;15.10;;;;;;;;;;5006906;28;20456;-76
2023/05/14 03:37:25;;;;;;;14.00;12.63;;;;;;;;;;5005185;28;20432;-76
2023/05/14 03:39:59;;;;;;;14.97;13.80;;;;;;;;;;5003683;28;20553;-75
2023/05/14 03:42:36;;;;;;;15.13;13.83;;;;;;;;;;5002014;28;20464;-76
2023/05/14 03:45:04;;;;;;;14.57;13.17;;;;;;;;;;5000369;28;20448;-76
2023/05/14 03:47:46;;;;;;;15.07;13.50;;;;;;;;;;5000088;28;20938;-76
2023/05/14 03:50:16;;;;;;;14.47;13.27;;;;;;;;;;5002100;28;20479;-76
2023/05/14 03:52:51;;;;;;;15.23;13.77;;;;;;;;;;5005061;28;20449;-75
2023/05/14 03:55:20;;;;;;;14.83;13.63;;;;;;;;;;5001092;28;20451;-75
2023/05/14 03:58:06;;;;;;;14.20;13.10;;;;;;;;;;5006430;28;21004;-74
2023/05/14 04:00:38;;;;;;;14.20;12.93;;;;;;;;;;4999987;28;20476;-76
2023/05/14 04:03:17;;;;;;;12.90;11.90;;;;;;;;;;5002142;28;20890;-76
2023/05/14 04:09:06;;;;;;;13.70;12.37;;;;;;;;;;4992278;28;20543;-74
2023/05/14 04:14:50;;;;;;;13.50;12.30;;;;;;;;;;4957556;29;20439;-76
2023/05/14 04:17:19;;;;;;;13.53;12.33;;;;;;;;;;4986455;28;20463;-78
2023/05/14 04:19:55;;;;;;;14.70;13.50;;;;;;;;;;4997783;28;20471;-76
2023/05/14 04:22:24;;;;;;;14.37;13.03;;;;;;;;;;4998080;28;20428;-76
2023/05/14 04:24:52;;;;;;;14.03;12.93;;;;;;;;;;4999311;28;20821;-76
2023/05/14 04:27:23;;;;;;;13.40;12.30;;;;;;;;;;4996931;28;21069;-78
2023/05/14 04:29:54;;;;;;;14.30;13.00;;;;;;;;;;4998230;28;20511;-78
2023/05/14 04:32:23;;;;;;;14.20;12.90;;;;;;;;;;4997940;28;20928;-78
2023/05/14 04:34:56;;;;;;;13.97;12.77;;;;;;;;;;4995034;28;20896;-76
2023/05/14 04:37:25;;;;;;;14.10;12.90;;;;;;;;;;5010199;28;20466;-77
2023/05/14 04:39:56;;;;;;;14.80;13.60;;;;;;;;;;5017900;28;20530;-76
2023/05/14 04:42:24;;;;;;;13.43;12.33;;;;;;;;;;5022389;28;20447;-76
2023/05/14 04:44:53;;;;;;;13.47;12.37;;;;;;;;;;5025264;28;20470;-76
2023/05/14 04:47:43;;;;;;;15.20;12.33;;;;;;;;;;5024710;28;20455;-77
2023/05/14 04:50:26;;;;;;;14.20;13.00;;;;;;;;;;5024403;28;20467;-76
2023/05/14 04:52:57;;;;;;;13.87;12.77;;;;;;;;;;5023548;28;20459;-76
2023/05/14 04:55:26;;;;;;;12.93;11.83;;;;;;;;;;5026742;28;20478;-76
2023/05/14 04:57:56;;;;;;;13.20;12.03;;;;;;;;;;5023972;28;20935;-76
2023/05/14 05:00:24;;;;;;;13.70;12.60;;;;;;;;;;5016584;28;20479;-76
2023/05/14 05:02:55;;;;;;;13.17;12.07;;;;;;;;;;5015575;28;20455;-77
2023/05/14 05:05:26;;;;;;;14.10;12.90;;;;;;;;;;5022731;28;20830;-77
2023/05/14 05:07:58;;;;;;;14.83;13.53;;;;;;;;;;5023318;28;20541;-76
2023/05/14 05:10:32;;;;;;;13.50;12.40;;;;;;;;;;5025114;28;20475;-75
2023/05/14 05:13:22;;;;;;;17.90;13.63;;;;;;;;;;5025099;28;20454;-76
2023/05/14 05:15:53;;;;;;;15.27;13.77;;;;;;;;;;5023562;28;20646;-75
2023/05/14 05:18:31;;;;;;;14.60;13.40;;;;;;;;;;5024281;28;20455;-78
2023/05/14 05:21:11;;;;;;;15.17;13.97;;;;;;;;;;5023369;28;20459;-76
2023/05/14 05:23:41;;;;;;;14.80;13.50;;;;;;;;;;5023468;28;20879;-74
2023/05/14 05:26:17;;;;;;;13.60;12.47;;;;;;;;;;5021142;28;20478;-77
2023/05/14 05:28:48;;;;;;;14.17;12.77;;;;;;;;;;5015698;28;20475;-77
2023/05/14 05:31:25;;;;;;;14.37;12.97;;;;;;;;;;5015834;28;20483;-77
2023/05/14 05:33:53;;;;;;;14.53;13.33;;;;;;;;;;5016089;28;20538;-76
2023/05/14 05:36:23;;;;;;;13.90;12.60;;;;;;;;;;5016076;28;20795;-76
2023/05/14 05:38:54;;;;;;;13.57;12.47;;;;;;;;;;5015937;28;20472;-76
2023/05/14 05:41:22;;;;;;;12.87;11.77;;;;;;;;;;5015615;28;20466;-76
2023/05/14 05:43:50;;;;;;;15.07;13.77;;;;;;;;;;5015755;28;20484;-76
2023/05/14 05:46:18;;;;;;;14.60;13.00;;;;;;;;;;5017815;28;20538;-77
2023/05/14 05:48:49;;;;;;;14.60;13.10;;;;;;;;;;5018338;28;20467;-76
2023/05/14 05:51:21;;;;;;;15.60;14.30;;;;;;;;;;5017659;28;20853;-77
2023/05/14 05:53:49;;;;;;;14.27;12.97;;;;;;;;;;5017973;28;20513;-76
2023/05/14 05:56:27;;;;;;;14.70;13.40;;;;;;;;;;5017485;28;20451;-75
2023/05/14 05:58:56;;;;;;;13.10;12.00;;;;;;;;;;5018375;28;20479;-75
2023/05/14 06:01:25;;;;;;;12.93;11.73;;;;;;;;;;5018375;28;20455;-76
2023/05/14 06:03:56;;;;;;;13.67;12.50;;;;;;;;;;5019073;28;20471;-74
2023/05/14 06:06:24;;;;;;;12.87;11.77;;;;;;;;;;5023800;28;20462;-75
2023/05/14 06:08:52;;;;;;;13.90;12.47;;;;;;;;;;5028022;28;20471;-75
2023/05/14 06:11:25;;;;;;;13.17;12.00;;;;;;;;;;5029151;28;20483;-76
2023/05/14 06:13:59;;;;;;;13.37;12.27;;;;;;;;;;5027060;28;20451;-74
2023/05/14 06:16:27;;;;;;;13.53;12.33;;;;;;;;;;5025970;28;20451;-76
2023/05/14 06:18:55;;;;;;;13.57;12.27;;;;;;;;;;5025818;28;20555;-76
2023/05/14 06:21:24;;;;;;;14.50;13.23;;;;;;;;;;5026759;28;20439;-76
2023/05/14 06:23:52;;;;;;;13.30;12.20;;;;;;;;;;5027153;28;20517;-76
2023/05/14 06:26:20;;;;;;;12.40;11.30;;;;;;;;;;5026128;28;20848;-76
2023/05/14 06:28:50;;;;;;;13.30;12.10;;;;;;;;;;5025779;28;20459;-75
2023/05/14 06:31:21;;;;;;;12.37;11.20;;;;;;;;;;5024433;28;21079;-77
2023/05/14 06:33:58;;;;;;;14.00;12.60;;;;;;;;;;5016905;28;20501;-75
2023/05/14 06:36:31;;;;;;;12.73;11.63;;;;;;;;;;5016832;28;20455;-76
2023/05/14 06:39:00;;;;;;;12.60;11.50;;;;;;;;;;5020184;28;20549;-76
2023/05/14 06:41:29;;;;;;;12.83;11.73;;;;;;;;;;5027144;28;20452;-76
2023/05/14 06:44:07;;;;;;;13.40;12.23;;;;;;;;;;5026968;28;20480;-76
2023/05/14 06:46:38;;;;;;;13.20;12.07;;;;;;;;;;5025745;28;20443;-75
2023/05/14 06:49:06;;;;;;;12.77;11.73;;;;;;;;;;5024725;28;20487;-74
2023/05/14 06:51:34;;;;;;;12.67;11.57;;;;;;;;;;5021041;28;20467;-77
2023/05/14 06:54:02;;;;;;;12.37;11.37;;;;;;;;;;5022651;28;20456;-76
2023/05/14 06:59:15;;;;;;;12.90;11.70;;;;;;;;;;5024158;28;20531;-76
2023/05/14 07:01:43;;;;;;;13.33;12.23;;;;;;;;;;5022027;28;20813;-75
2023/05/14 07:04:11;;;;;;;14.40;13.10;;;;;;;;;;5018582;28;20442;-76
2023/05/14 07:06:42;;;;;;;12.93;11.87;;;;;;;;;;5020010;28;20423;-76
2023/05/14 07:09:10;;;;;;;13.00;11.83;;;;;;;;;;5018544;28;20479;-76
2023/05/14 07:11:41;;;;;;;13.73;12.40;;;;;;;;;;5016492;28;20474;-76
2023/05/14 07:14:15;;;;;;;12.40;11.40;;;;;;;;;;5018437;28;20459;-75
2023/05/14 07:16:45;;;;;;;13.57;12.13;;;;;;;;;;5026835;28;20449;-76
2023/05/14 07:19:13;;;;;;;12.10;11.10;;;;;;;;;;5022014;28;20475;-78
2023/05/14 07:22:04;;;;;;;13.40;12.20;;;;;;;;;;5024762;28;20463;-75
2023/05/14 07:24:31;;;;;;;12.83;11.63;;;;;;;;;;5027000;28;20431;-77
2023/05/14 07:27:13;;;;;;;11.93;10.87;;;;;;;;;;5028568;28;20984;-75
2023/05/14 07:29:44;;;;;;;13.40;12.20;;;;;;;;;;5029747;28;20523;-76
2023/05/14 07:32:19;;;;;;;13.33;12.23;;;;;;;;;;5028457;28;20514;-76
2023/05/14 07:34:47;;;;;;;13.27;11.97;;;;;;;;;;5026959;28;20841;-75
2023/05/14 07:37:21;;;;;;;14.03;12.90;;;;;;;;;;5032713;28;20470;-76
2023/05/14 07:39:52;;;;;;;13.30;12.10;;;;;;;;;;5030770;28;20475;-77
2023/05/14 07:42:23;;;;;;;13.60;12.03;;;;;;;;;;5031820;28;20432;-78
2023/05/14 07:44:56;;;;;;;13.87;12.57;;;;;;;;;;5027845;28;20474;-76
2023/05/14 07:47:28;;;;;;;12.97;11.63;;;;;;;;;;5021894;28;20479;-77
2023/05/14 07:50:00;;;;;;;12.10;11.10;;;;;;;;;;5021637;28;20479;-77
2023/05/14 07:52:29;;;;;;;12.77;11.67;;;;;;;;;;5022277;28;20467;-76
2023/05/14 07:54:58;;;;;;;13.90;12.53;;;;;;;;;;5020809;28;20455;-75
2023/05/14 07:57:28;;;;;;;12.37;11.37;;;;;;;;;;5023965;28;20455;-78
2023/05/14 07:59:57;;;;;;;12.77;11.77;;;;;;;;;;5029135;28;20694;-77
2023/05/14 08:02:27;;;;;;;15.20;10.93;;;;;;;;;;5032459;28;20844;-76
2023/05/14 08:04:55;;;;;;;12.10;11.00;;;;;;;;;;5032951;28;20452;-77
2023/05/14 08:07:23;;;;;;;11.70;10.70;;;;;;;;;;5032289;28;20474;-76
2023/05/14 08:09:52;;;;;;;13.43;12.33;;;;;;;;;;5031777;28;20471;-79
2023/05/14 08:12:19;;;;;;;13.47;12.27;;;;;;;;;;5031056;28;20598;-78
2023/05/14 08:14:47;;;;;;;12.33;11.30;;;;;;;;;;5029683;28;20502;-76
2023/05/14 08:17:15;;;;;;;12.70;11.63;;;;;;;;;;5031355;28;20456;-75
2023/05/14 08:19:45;;;;;;;11.97;10.97;;;;;;;;;;5034564;28;20486;-76
2023/05/14 08:22:15;;;;;;;11.00;10.17;;;;;;;;;;5034435;28;20448;-76
2023/05/14 08:24:46;;;;;;;12.50;11.30;;;;;;;;;;5031261;28;20447;-77
2023/05/14 08:27:15;;;;;;;12.67;10.97;;;;;;;;;;5032945;28;20481;-76
2023/05/14 08:29:46;;;;;;;12.57;11.40;;;;;;;;;;5032166;28;20538;-75
2023/05/14 08:32:14;;;;;;;13.13;12.03;;;;;;;;;;5031217;28;20494;-75
2023/05/14 08:34:42;;;;;;;12.30;11.20;;;;;;;;;;5033559;28;20467;-75
2023/05/14 08:37:11;;;;;;;11.20;10.33;;;;;;;;;;5033597;28;20511;-76
2023/05/14 08:39:39;;;;;;;12.73;11.63;;;;;;;;;;5033257;28;20538;-76
2023/05/14 08:42:07;;;;;;;13.20;12.10;;;;;;;;;;5031825;28;20468;-77
2023/05/14 08:44:40;;;;;;;12.37;11.27;;;;;;;;;;5033049;28;20511;-75
2023/05/14 08:47:11;;;;;;;14.10;10.73;;;;;;;;;;5033477;28;20456;-78
2023/05/14 08:49:41;;;;;;;13.00;11.80;;;;;;;;;;5032330;28;20482;-76
2023/05/14 08:52:13;;;;;;;11.37;10.43;;;;;;;;;;5032160;28;20482;-75
2023/05/14 08:54:41;;;;;;;14.57;13.40;;;;;;;;;;5031760;28;20455;-77
2023/05/14 08:57:10;;;;;;;12.70;11.60;;;;;;;;;;5032702;28;20474;-77
2023/05/14 08:59:49;;;;;;;13.93;12.63;;;;;;;;;;5031453;28;20475;-76
2023/05/14 09:02:18;;;;;;;11.50;10.50;;;;;;;;;;5032426;28;20437;-77
2023/05/14 09:04:47;;;;;;;12.37;11.30;;;;;;;;;;5031231;28;20458;-76
2023/05/14 09:07:16;;;;;;;13.97;12.60;;;;;;;;;;5031321;28;20455;-76
2023/05/14 09:09:45;;;;;;;12.67;11.50;;;;;;;;;;5030822;28;20502;-77
2023/05/14 09:12:13;;;;;;;12.70;11.70;;;;;;;;;;5031066;28;20491;-78
2023/05/14 09:14:41;;;;;;;12.67;11.67;;;;;;;;;;5026783;28;20450;-77
2023/05/14 09:17:11;;;;;;;13.20;12.00;;;;;;;;;;5021501;28;20451;-75
2023/05/14 09:19:39;;;;;;;12.30;11.30;;;;;;;;;;5021190;28;20478;-75
2023/05/14 09:22:10;;;;;;;13.00;11.87;;;;;;;;;;5019515;28;20439;-75
2023/05/14 09:24:43;;;;;;;11.80;10.80;;;;;;;;;;5018869;28;20462;-76
2023/05/14 09:27:20;;;;;;;12.70;11.60;;;;;;;;;;5016754;28;20458;-76
2023/05/14 09:29:48;;;;;;;13.00;11.90;;;;;;;;;;5016902;28;20478;-77
2023/05/14 09:32:17;;;;;;;11.90;10.90;;;;;;;;;;5016053;28;20522;-75
2023/05/14 09:34:44;;;;;;;13.17;12.07;;;;;;;;;;5015354;28;20431;-75
2023/05/14 09:37:12;;;;;;;12.10;11.10;;;;;;;;;;5014890;28;20458;-75
2023/05/14 09:39:41;;;;;;;12.13;11.00;;;;;;;;;;5017042;28;20530;-77
2023/05/14 09:42:09;;;;;;;12.13;11.07;;;;;;;;;;5018173;28;20447;-77
2023/05/14 09:44:42;;;;;;;12.63;11.53;;;;;;;;;;5027171;28;20454;-76
2023/05/14 09:47:10;;;;;;;11.07;10.13;;;;;;;;;;5030989;28;20477;-77
2023/05/14 09:49:39;;;;;;;12.27;11.17;;;;;;;;;;5032508;28;20460;-75
2023/05/14 09:52:08;;;;;;;11.70;10.50;;;;;;;;;;5028109;28;21167;-75
2023/05/14 09:54:36;;;;;;;10.40;9.60;;;;;;;;;;5031498;28;20440;-74
2023/05/14 09:57:07;;;;;;;11.17;10.27;;;;;;;;;;5032329;28;20463;-76
2023/05/14 09:59:35;;;;;;;10.60;9.40;;;;;;;;;;5021957;28;20483;-76
2023/05/14 10:02:08;;;;;;;11.47;10.57;;;;;;;;;;5020126;28;20432;-76
2023/05/14 10:04:39;;;;;;;10.07;9.27;;;;;;;;;;5021614;28;20458;-76
2023/05/14 10:07:07;;;;;;;10.00;9.20;;;;;;;;;;5022200;28;20444;-76
2023/05/14 10:09:35;;;;;;;10.33;9.47;;;;;;;;;;5021385;28;20475;-77
2023/05/14 10:12:03;;;;;;;10.17;9.37;;;;;;;;;;5025506;28;20439;-75
2023/05/14 10:14:37;;;;;;;10.70;9.77;;;;;;;;;;5028803;28;20447;-75
2023/05/14 10:17:08;;;;;;;12.80;11.60;;;;;;;;;;5029088;28;20470;-76
2023/05/14 10:19:40;;;;;;;11.53;10.60;;;;;;;;;;5030054;28;20464;-76
2023/05/14 10:22:10;;;;;;;11.83;10.83;;;;;;;;;;5031571;28;20458;-75
2023/05/14 10:24:41;;;;;;;20.10;18.30;;;;;;;;;;5029204;28;20777;-76
2023/05/14 10:27:09;;;;;;;11.93;11.03;;;;;;;;;;5025561;28;20462;-76
2023/05/14 10:32:31;;;;;;;10.80;9.90;;;;;;;;;;5016922;28;20486;-76
2023/05/14 10:35:02;;;;;;;9.27;8.50;;;;;;;;;;5015108;28;20459;-75
2023/05/14 10:37:39;;;;;;;9.77;8.73;;;;;;;;;;5015089;28;20454;-75
2023/05/14 10:45:55;;;;;;;8.77;8.07;;;;;;;;;;5011469;28;20447;-76
2023/05/14 10:48:24;;;;;;;8.03;7.43;;;;;;;;;;5014228;28;20455;-76
2023/05/14 10:51:08;;;;;;;8.30;7.70;;;;;;;;;;5014154;28;20543;-76
2023/05/14 10:53:58;;;;;;;9.40;8.70;;;;;;;;;;5014695;28;20470;-75
2023/05/14 10:56:27;;;;;;;9.37;8.63;;;;;;;;;;5012993;28;20416;-77
2023/05/14 10:59:00;;;;;;;8.53;7.93;;;;;;;;;;5016096;28;20483;-75
2023/05/14 11:01:34;;;;;;;8.37;7.77;;;;;;;;;;5016988;28;20462;-75
2023/05/14 11:04:09;;;;;;;8.47;7.80;;;;;;;;;;5016419;28;20461;-77
2023/05/14 11:06:40;;;;;;;9.30;8.60;;;;;;;;;;5014883;28;20509;-76
2023/05/14 11:09:08;;;;;;;9.67;8.97;;;;;;;;;;5014393;28;20464;-77
2023/05/14 11:11:36;;;;;;;9.17;8.47;;;;;;;;;;5014868;28;20459;-77
2023/05/14 11:14:12;;;;;;;10.10;9.30;;;;;;;;;;5016157;28;20482;-76
2023/05/14 11:16:42;;;;;;;9.33;8.43;;;;;;;;;;5017790;28;20452;-77
2023/05/14 11:19:10;;;;;;;9.53;8.73;;;;;;;;;;5015406;28;20476;-75
2023/05/14 11:21:38;;;;;;;9.50;8.70;;;;;;;;;;5015612;28;20486;-76
2023/05/14 11:24:07;;;;;;;8.73;8.07;;;;;;;;;;5014364;28;20439;-76
2023/05/14 11:26:35;;;;;;;9.40;8.60;;;;;;;;;;5014647;28;20451;-75
2023/05/14 11:29:03;;;;;;;8.60;8.00;;;;;;;;;;5017257;28;20506;-76
2023/05/14 11:31:32;;;;;;;8.07;7.30;;;;;;;;;;5016117;28;20467;-76
2023/05/14 11:34:03;;;;;;;8.20;7.60;;;;;;;;;;5015753;28;20490;-77
2023/05/14 11:36:31;;;;;;;8.30;7.70;;;;;;;;;;5016119;28;20912;-76
2023/05/14 11:39:02;;;;;;;8.00;7.40;;;;;;;;;;5015264;28;20862;-78
2023/05/14 11:41:48;;;;;;;7.40;6.90;;;;;;;;;;5016116;28;20574;-77
2023/05/14 11:44:18;;;;;;;7.70;7.20;;;;;;;;;;5015076;28;20481;-76
2023/05/14 11:46:54;;;;;;;7.93;7.33;;;;;;;;;;5016245;28;20475;-76
2023/05/14 11:49:29;;;;;;;8.07;7.47;;;;;;;;;;5015775;28;20475;-76
2023/05/14 11:52:00;;;;;;;7.40;6.90;;;;;;;;;;5017662;28;20441;-76
2023/05/14 11:54:28;;;;;;;6.90;6.40;;;;;;;;;;5018266;28;20543;-77
2023/05/14 11:56:56;;;;;;;7.23;6.63;;;;;;;;;;5017519;28;20451;-76
2023/05/14 11:59:25;;;;;;;7.30;6.60;;;;;;;;;;5014399;28;20558;-75
2023/05/14 12:01:53;;;;;;;7.50;7.00;;;;;;;;;;5013214;28;20968;-76
2023/05/14 12:04:21;;;;;;;7.10;6.60;;;;;;;;;;5012502;28;20455;-76
2023/05/14 12:06:50;;;;;;;6.73;6.23;;;;;;;;;;5013002;28;20483;-76
2023/05/14 12:09:18;;;;;;;7.60;7.00;;;;;;;;;;5012742;28;21059;-77
2023/05/14 12:11:46;;;;;;;7.27;6.60;;;;;;;;;;5013620;28;20439;-77
2023/05/14 12:14:16;;;;;;;6.90;6.40;;;;;;;;;;5014959;28;20853;-76
2023/05/14 12:16:44;;;;;;;7.33;6.80;;;;;;;;;;5020188;28;20916;-75
2023/05/14 12:19:12;;;;;;;7.90;6.83;;;;;;;;;;5020178;28;20546;-77
2023/05/14 12:21:40;;;;;;;7.30;6.80;;;;;;;;;;5020196;28;20431;-77
2023/05/14 12:24:12;;;;;;;6.60;6.17;;;;;;;;;;5019451;28;20451;-77
2023/05/14 12:26:46;;;;;;;6.23;5.83;;;;;;;;;;5021832;28;20466;-77
2023/05/14 12:29:17;;;;;;;6.20;5.80;;;;;;;;;;5022419;28;20559;-76
2023/05/14 12:31:48;;;;;;;5.90;5.60;;;;;;;;;;5021923;28;20448;-75
2023/05/14 12:34:16;;;;;;;7.07;6.53;;;;;;;;;;5023038;28;20575;-76
2023/05/14 12:36:45;;;;;;;6.50;6.00;;;;;;;;;;5021274;28;20455;-75
2023/05/14 12:39:15;;;;;;;5.43;5.13;;;;;;;;;;5024276;28;20514;-77
2023/05/14 12:41:46;;;;;;;6.83;6.33;;;;;;;;;;5024332;28;20530;-76
2023/05/14 12:44:17;;;;;;;6.03;5.63;;;;;;;;;;5023111;28;20490;-76
2023/05/14 12:46:53;;;;;;;6.47;5.30;;;;;;;;;;5023569;28;20439;-75
2023/05/14 12:49:48;;;;;;;6.20;5.80;;;;;;;;;;5024880;28;20474;-75
2023/05/14 12:52:20;;;;;;;5.20;4.83;;;;;;;;;;5023508;28;20510;-75
2023/05/14 12:54:53;;;;;;;4.77;4.27;;;;;;;;;;5029345;28;20546;-75
2023/05/14 12:57:22;;;;;;;4.90;4.60;;;;;;;;;;5028931;28;20448;-76
2023/05/14 12:59:52;;;;;;;5.67;5.37;;;;;;;;;;5029432;28;20479;-74
2023/05/14 13:02:22;;;;;;;6.10;5.70;;;;;;;;;;5029028;28;20451;-76
2023/05/14 13:04:51;;;;;;;5.70;5.30;;;;;;;;;;5032494;28;20447;-75
2023/05/14 13:07:19;;;;;;;5.57;5.07;;;;;;;;;;5032030;28;20550;-75
2023/05/14 13:09:49;;;;;;;5.90;5.50;;;;;;;;;;5033255;28;20498;-75
2023/05/14 13:12:21;;;;;;;5.70;5.30;;;;;;;;;;5028222;28;20499;-76
2023/05/14 13:14:50;;;;;;;5.67;5.20;;;;;;;;;;5022861;28;20455;-76
2023/05/14 13:17:18;;;;;;;5.03;4.70;;;;;;;;;;5023178;28;20470;-75
2023/05/14 13:19:46;;;;;;;4.90;4.50;;;;;;;;;;5018596;28;20463;-76
2023/05/14 13:22:15;;;;;;;5.47;5.07;;;;;;;;;;5018156;28;20490;-74
2023/05/14 13:24:46;;;;;;;6.23;5.73;;;;;;;;;;5016636;28;20455;-75
2023/05/14 13:27:15;;;;;;;5.10;4.80;;;;;;;;;;5016575;28;20483;-75
2023/05/14 13:29:44;;;;;;;5.50;5.07;;;;;;;;;;5022010;28;20928;-75
2023/05/14 13:32:12;;;;;;;5.73;5.33;;;;;;;;;;5027096;28;20505;-76
2023/05/14 13:34:48;;;;;;;5.23;4.93;;;;;;;;;;5027242;28;20483;-75
2023/05/14 13:37:22;;;;;;;5.57;5.20;;;;;;;;;;5026699;28;20431;-75
2023/05/14 13:40:14;;;;;;;5.90;5.50;;;;;;;;;;5024869;28;20571;-76
2023/05/14 13:42:57;;;;;;;6.20;5.80;;;;;;;;;;5024101;28;20459;-76
2023/05/14 13:45:30;;;;;;;5.00;4.70;;;;;;;;;;5025867;28;20434;-77
2023/05/14 13:48:01;;;;;;;5.50;5.10;;;;;;;;;;5028007;28;20424;-77
2023/05/14 13:50:31;;;;;;;5.53;5.13;;;;;;;;;;5027488;28;20471;-75
2023/05/14 13:53:01;;;;;;;4.93;4.63;;;;;;;;;;5026287;28;20456;-76
2023/05/14 13:55:35;;;;;;;4.80;4.50;;;;;;;;;;5026514;28;20451;-77
2023/05/14 13:58:04;;;;;;;6.00;5.53;;;;;;;;;;5024543;28;20462;-76
2023/05/14 14:00:32;;;;;;;5.53;5.13;;;;;;;;;;5025497;28;20474;-76
2023/05/14 14:03:01;;;;;;;5.90;5.40;;;;;;;;;;5026496;28;20452;-77
2023/05/14 14:05:28;;;;;;;5.20;4.90;;;;;;;;;;5025392;28;20459;-77
2023/05/14 14:08:03;;;;;;;5.70;5.30;;;;;;;;;;5030980;28;20451;-76
2023/05/14 14:10:35;;;;;;;6.10;5.60;;;;;;;;;;5033706;28;20523;-77
2023/05/14 14:13:04;;;;;;;5.70;5.40;;;;;;;;;;5028080;28;20479;-78
2023/05/14 14:15:37;;;;;;;5.40;5.10;;;;;;;;;;5024178;28;20527;-76
2023/05/14 14:18:07;;;;;;;5.23;4.83;;;;;;;;;;5026865;28;20451;-77
2023/05/14 14:20:54;;;;;;;4.33;4.13;;;;;;;;;;5028343;28;20470;-76
2023/05/14 14:26:03;;;;;;;4.60;4.30;;;;;;;;;;5029392;28;20459;-77
2023/05/14 14:28:33;;;;;;;5.20;4.07;;;;;;;;;;5030612;28;20454;-76
2023/05/14 14:31:01;;;;;;;3.83;3.63;;;;;;;;;;5034468;28;20436;-76
2023/05/14 14:33:30;;;;;;;4.47;4.17;;;;;;;;;;5034117;28;20481;-77
2023/05/14 14:35:58;;;;;;;4.10;3.90;;;;;;;;;;5034595;28;20482;-76
2023/05/14 14:38:26;;;;;;;4.87;4.57;;;;;;;;;;5034039;28;20466;-74
2023/05/14 14:40:54;;;;;;;4.60;4.20;;;;;;;;;;5032299;28;20514;-74
2023/05/14 14:43:22;;;;;;;5.30;4.90;;;;;;;;;;5025323;28;20420;-75
2023/05/14 14:45:52;;;;;;;5.07;4.57;;;;;;;;;;5026754;28;20523;-75
2023/05/14 14:48:26;;;;;;;4.77;4.47;;;;;;;;;;5025267;28;20459;-76
2023/05/14 14:50:54;;;;;;;5.00;4.70;;;;;;;;;;5028758;28;20435;-76
2023/05/14 14:53:22;;;;;;;5.67;4.40;;;;;;;;;;5028902;28;21042;-76
2023/05/14 14:55:50;;;;;;;4.43;4.13;;;;;;;;;;5028830;28;20459;-76
2023/05/14 14:58:18;;;;;;;4.10;3.90;;;;;;;;;;5028539;28;20462;-75
2023/05/14 15:00:46;;;;;;;4.47;3.53;;;;;;;;;;5027875;28;20486;-76
2023/05/14 15:03:15;;;;;;;3.37;3.17;;;;;;;;;;5024870;28;20436;-76
2023/05/14 15:05:43;;;;;;;4.20;3.90;;;;;;;;;;5024079;28;20470;-76
2023/05/14 15:08:11;;;;;;;3.77;3.47;;;;;;;;;;5026138;28;20485;-75
2023/05/14 15:10:40;;;;;;;3.93;3.73;;;;;;;;;;5025969;28;20475;-76
2023/05/14 15:13:08;;;;;;;4.67;4.37;;;;;;;;;;5028149;28;20475;-77